F/V El Amanecer — FHKI — position and weather

sailwx.info

Track history (hours):
 
Tides and Currents Weather Stations Pressure Air Temp Water Temp Dewpoint Dewpoint Depression Visibility Wind Speed Wind Dir Waves Ship Positions

F/V El Amanecer

Last reported at 2017-Nov-24 06:24 UTC. Time now 2017-Nov-25 06:12 UTC.
Position N 46°59' W 003°10'.

Length 20 m; draft 3.5 m.

Type: Fishing. MMSI: 228157000.

Date/timePositionNaut miles runAvg speedWind from/ knotsBaromVisibWave heightAir tempDewpointWater temp
2017-Nov-24 06:24N 46°59' W 003°10'4 9.1
2017-Nov-24 06:00N 47°01' W 003°06'6 8.8
2017-Nov-24 05:23N 47°05' W 002°59'3 8.5
2017-Nov-24 05:00N 47°06' W 002°55'5 8.1
2017-Nov-24 04:23N 47°09' W 002°49'3 8.1
2017-Nov-24 04:00N 47°11' W 002°45'4 8.0
2017-Nov-24 03:30N 47°13' W 002°40'4 7.9
2017-Nov-24 03:00N 47°16' W 002°36'4 8.1
2017-Nov-24 02:30N 47°19' W 002°33'2 3.5
2017-Nov-24 01:55N 47°21' W 002°31'0 0.0
2017-Nov-24 01:29N 47°21' W 002°31'0 0.0
2017-Nov-24 00:56N 47°21' W 002°31'0 0.0
2017-Nov-24 00:27N 47°21' W 002°31'0 0.0
2017-Nov-23 23:56N 47°21' W 002°31'0 0.0
2017-Nov-23 23:30N 47°21' W 002°31'0 0.0
2017-Nov-23 23:00N 47°21' W 002°31'0 0.0
2017-Nov-23 22:30N 47°21' W 002°31'0 0.0
2017-Nov-23 21:59N 47°21' W 002°31'0 0.1
2017-Nov-23 21:30N 47°21' W 002°31'0 0.0
2017-Nov-23 20:59N 47°21' W 002°31'0 0.0
2017-Nov-23 20:29N 47°21' W 002°31'53 2.1
2017-Nov-22 19:28N 46°35' W 003°08'  
2017-Nov-17 09:56N 47°21' W 002°31'0 0.0
2017-Nov-17 09:26N 47°21' W 002°31'0 0.0
2017-Nov-17 08:54N 47°21' W 002°31'0 0.0
2017-Nov-17 03:32N 47°21' W 002°31'0 0.0
2017-Nov-17 03:20N 47°21' W 002°31'0 0.0
2017-Nov-17 02:57N 47°21' W 002°31'0 0.0
2017-Nov-17 02:30N 47°21' W 002°31'0 0.0
2017-Nov-17 02:00N 47°21' W 002°31'0 0.0
2017-Nov-17 01:28N 47°21' W 002°31'0 0.1
2017-Nov-17 00:57N 47°21' W 002°31'0 0.0
2017-Nov-17 00:30N 47°21' W 002°31'0 0.0
2017-Nov-17 00:00N 47°21' W 002°31'0 0.0
2017-Nov-16 23:29N 47°21' W 002°31'0 0.0
2017-Nov-16 22:43N 47°21' W 002°31'0 0.0
2017-Nov-16 22:30N 47°21' W 002°31'1 2.4
2017-Nov-16 22:00N 47°20' W 002°32'4 8.4
2017-Nov-16 21:30N 47°17' W 002°36'5 9.9
2017-Nov-16 21:00N 47°12' W 002°39'5 9.7
2017-Nov-16 20:30N 47°08' W 002°43'5 9.3
2017-Nov-16 20:00N 47°05' W 002°48'5 9.4
2017-Nov-16 19:30N 47°01' W 002°52'5 9.1
2017-Nov-16 19:00N 46°57' W 002°55'4 8.8
2017-Nov-16 18:30N 46°53' W 002°59'5 8.5
2017-Nov-16 17:53N 46°49' W 003°03'4 8.8
2017-Nov-16 17:27N 46°46' W 003°06'7 8.7
2017-Nov-16 16:36N 46°40' W 003°12'0 2.5
2017-Nov-16 16:24N 46°39' W 003°13'1 2.7
2017-Nov-16 15:55N 46°38' W 003°14'1 2.1
2017-Nov-16 15:19N 46°37' W 003°13'1 3.0
2017-Nov-16 15:00N 46°36' W 003°12'2 3.0
2017-Nov-16 14:28N 46°35' W 003°12'4 2.8
2017-Nov-16 13:12N 46°31' W 003°14'1 3.2
2017-Nov-16 13:00N 46°31' W 003°14'1 2.3
2017-Nov-16 12:30N 46°31' W 003°12'2 3.1
2017-Nov-16 12:00N 46°32' W 003°11'2 3.0
2017-Nov-16 11:12N 46°33' W 003°08'1 2.8
2017-Nov-16 10:43N 46°35' W 003°08'0 1.4
2017-Nov-16 10:30N 46°35' W 003°08'2 3.1
2017-Nov-16 10:00N 46°33' W 003°09'2 3.3
2017-Nov-16 09:28N 46°31' W 003°08'3 0.7
2017-Nov-16 04:54N 46°35' W 003°08'4 2.5
2017-Nov-16 03:21N 46°31' W 003°10'1 3.1
2017-Nov-16 03:00N 46°30' W 003°09'1 0.4
2017-Nov-15 23:28N 46°30' W 003°07'2 3.2
2017-Nov-15 22:44N 46°32' W 003°09'2 2.2
2017-Nov-15 21:47N 46°34' W 003°11'1 3.1
2017-Nov-15 21:26N 46°35' W 003°10'1 2.7
2017-Nov-15 21:00N 46°35' W 003°08'2 3.1
2017-Nov-15 20:30N 46°33' W 003°09'2 3.4
2017-Nov-15 19:58N 46°31' W 003°08'2 3.4
2017-Nov-15 19:31N 46°30' W 003°07'2 2.9
2017-Nov-15 18:50N 46°28' W 003°08'4 1.0
2017-Nov-15 14:37N 46°33' W 003°09'1 3.1
2017-Nov-15 14:13N 46°31' W 003°08'1 3.1
2017-Nov-15 13:57N 46°31' W 003°07'1 0.3
2017-Nov-15 09:58N 46°31' W 003°09'1 3.0
2017-Nov-15 09:30N 46°31' W 003°07'2 3.1
2017-Nov-15 09:00N 46°29' W 003°07'2 3.4
2017-Nov-15 08:30N 46°28' W 003°08'8 2.2
2017-Nov-15 04:38N 46°30' W 003°20'3 2.4
2017-Nov-15 03:26N 46°27' W 003°19'10 3.2
2017-Nov-15 00:25N 46°36' W 003°14'1 2.9
2017-Nov-14 23:59N 46°36' W 003°12'3 2.8
2017-Nov-14 22:52N 46°33' W 003°11'5 0.7
2017-Nov-14 14:51N 46°29' W 003°06'4 1.1
2017-Nov-14 11:02N 46°31' W 003°11'4 2.4
2017-Nov-14 09:15N 46°26' W 003°12'  
Track history (hours):
 
Tides and Currents Weather Stations Pressure Air Temp Water Temp Dewpoint Dewpoint Depression Visibility Wind Speed Wind Dir Waves Ship Positions

F/V El Amanecer

Last reported at 2017-Nov-24 06:24 UTC. Time now 2017-Nov-25 06:12 UTC.
Position N 46°59' W 003°10'.

Length 20 m; draft 3.5 m.

Type: Fishing. MMSI: 228157000.

Date/timePositionNaut miles runAvg speedWind from/ knotsBaromVisibWave heightAir tempDewpointWater temp
2017-Nov-24 06:24N 46°59' W 003°10'4 9.1
2017-Nov-24 06:00N 47°01' W 003°06'6 8.8
2017-Nov-24 05:23N 47°05' W 002°59'3 8.5
2017-Nov-24 05:00N 47°06' W 002°55'5 8.1
2017-Nov-24 04:23N 47°09' W 002°49'3 8.1
2017-Nov-24 04:00N 47°11' W 002°45'4 8.0
2017-Nov-24 03:30N 47°13' W 002°40'4 7.9
2017-Nov-24 03:00N 47°16' W 002°36'4 8.1
2017-Nov-24 02:30N 47°19' W 002°33'2 3.5
2017-Nov-24 01:55N 47°21' W 002°31'0 0.0
2017-Nov-24 01:29N 47°21' W 002°31'0 0.0
2017-Nov-24 00:56N 47°21' W 002°31'0 0.0
2017-Nov-24 00:27N 47°21' W 002°31'0 0.0
2017-Nov-23 23:56N 47°21' W 002°31'0 0.0
2017-Nov-23 23:30N 47°21' W 002°31'0 0.0
2017-Nov-23 23:00N 47°21' W 002°31'0 0.0
2017-Nov-23 22:30N 47°21' W 002°31'0 0.0
2017-Nov-23 21:59N 47°21' W 002°31'0 0.1
2017-Nov-23 21:30N 47°21' W 002°31'0 0.0
2017-Nov-23 20:59N 47°21' W 002°31'0 0.0
2017-Nov-23 20:29N 47°21' W 002°31'53 2.1
2017-Nov-22 19:28N 46°35' W 003°08'  
2017-Nov-17 09:56N 47°21' W 002°31'0 0.0
2017-Nov-17 09:26N 47°21' W 002°31'0 0.0
2017-Nov-17 08:54N 47°21' W 002°31'0 0.0
2017-Nov-17 03:32N 47°21' W 002°31'0 0.0
2017-Nov-17 03:20N 47°21' W 002°31'0 0.0
2017-Nov-17 02:57N 47°21' W 002°31'0 0.0
2017-Nov-17 02:30N 47°21' W 002°31'0 0.0
2017-Nov-17 02:00N 47°21' W 002°31'0 0.0
2017-Nov-17 01:28N 47°21' W 002°31'0 0.1
2017-Nov-17 00:57N 47°21' W 002°31'0 0.0
2017-Nov-17 00:30N 47°21' W 002°31'0 0.0
2017-Nov-17 00:00N 47°21' W 002°31'0 0.0
2017-Nov-16 23:29N 47°21' W 002°31'0 0.0
2017-Nov-16 22:43N 47°21' W 002°31'0 0.0
2017-Nov-16 22:30N 47°21' W 002°31'1 2.4
2017-Nov-16 22:00N 47°20' W 002°32'4 8.4
2017-Nov-16 21:30N 47°17' W 002°36'5 9.9
2017-Nov-16 21:00N 47°12' W 002°39'5 9.7
2017-Nov-16 20:30N 47°08' W 002°43'5 9.3
2017-Nov-16 20:00N 47°05' W 002°48'5 9.4
2017-Nov-16 19:30N 47°01' W 002°52'5 9.1
2017-Nov-16 19:00N 46°57' W 002°55'4 8.8
2017-Nov-16 18:30N 46°53' W 002°59'5 8.5
2017-Nov-16 17:53N 46°49' W 003°03'4 8.8
2017-Nov-16 17:27N 46°46' W 003°06'7 8.7
2017-Nov-16 16:36N 46°40' W 003°12'0 2.5
2017-Nov-16 16:24N 46°39' W 003°13'1 2.7
2017-Nov-16 15:55N 46°38' W 003°14'1 2.1
2017-Nov-16 15:19N 46°37' W 003°13'1 3.0
2017-Nov-16 15:00N 46°36' W 003°12'2 3.0
2017-Nov-16 14:28N 46°35' W 003°12'4 2.8
2017-Nov-16 13:12N 46°31' W 003°14'1 3.2
2017-Nov-16 13:00N 46°31' W 003°14'1 2.3
2017-Nov-16 12:30N 46°31' W 003°12'2 3.1
2017-Nov-16 12:00N 46°32' W 003°11'2 3.0
2017-Nov-16 11:12N 46°33' W 003°08'1 2.8
2017-Nov-16 10:43N 46°35' W 003°08'0 1.4
2017-Nov-16 10:30N 46°35' W 003°08'2 3.1
2017-Nov-16 10:00N 46°33' W 003°09'2 3.3
2017-Nov-16 09:28N 46°31' W 003°08'3 0.7
2017-Nov-16 04:54N 46°35' W 003°08'4 2.5
2017-Nov-16 03:21N 46°31' W 003°10'1 3.1
2017-Nov-16 03:00N 46°30' W 003°09'1 0.4
2017-Nov-15 23:28N 46°30' W 003°07'2 3.2
2017-Nov-15 22:44N 46°32' W 003°09'2 2.2
2017-Nov-15 21:47N 46°34' W 003°11'1 3.1
2017-Nov-15 21:26N 46°35' W 003°10'1 2.7
2017-Nov-15 21:00N 46°35' W 003°08'2 3.1
2017-Nov-15 20:30N 46°33' W 003°09'2 3.4
2017-Nov-15 19:58N 46°31' W 003°08'2 3.4
2017-Nov-15 19:31N 46°30' W 003°07'2 2.9
2017-Nov-15 18:50N 46°28' W 003°08'4 1.0
2017-Nov-15 14:37N 46°33' W 003°09'1 3.1
2017-Nov-15 14:13N 46°31' W 003°08'1 3.1
2017-Nov-15 13:57N 46°31' W 003°07'1 0.3
2017-Nov-15 09:58N 46°31' W 003°09'1 3.0
2017-Nov-15 09:30N 46°31' W 003°07'2 3.1
2017-Nov-15 09:00N 46°29' W 003°07'2 3.4
2017-Nov-15 08:30N 46°28' W 003°08'8 2.2
2017-Nov-15 04:38N 46°30' W 003°20'3 2.4
2017-Nov-15 03:26N 46°27' W 003°19'10 3.2
2017-Nov-15 00:25N 46°36' W 003°14'1 2.9
2017-Nov-14 23:59N 46°36' W 003°12'3 2.8
2017-Nov-14 22:52N 46°33' W 003°11'5 0.7
2017-Nov-14 14:51N 46°29' W 003°06'4 1.1
2017-Nov-14 11:02N 46°31' W 003°11'4 2.4
2017-Nov-14 09:15N 46°26' W 003°12'  

Dump ship's entire track history